YGCL weather

Gold Coast Life Saver Base
Carrara Gold Coast, Queensland, Australia

Public forecast

Using degrees Celsius for public forecast. Weather courtesy of forecast.io.

METAR (pilot weather report)

Closest report is Gold Coast Airport, 12.3 nm (22.7 km) SE. Retrieved 2019/04/20 10:30 UTC (13 minutes ago):

YBCG 201030Z AUTO 14015KT 5000 RA SCT026 SCT041 BKN048 21/19 Q1022

TAF (pilot weather forecast)

Closest forecast is Gold Coast Airport, 12.3 nm (22.7 km) SE. Retrieved 2019/04/20 06:00 UTC (5 hours ago):

TAF YBCG 200504Z 2006/2106 13014KT 9999 -SHRA FEW015 SCT025 BKN040 FM201200 15008KT 9999 -SHRA SCT015 SCT030 FM202300 12014KT 9999 -SHRA SCT020 SCT030 INTER 2006/2018 3000 SHRA BKN012